Luray, Virginia
Current Conditions -  °F | °C
As of 9:55 PM on Wednesday 26 Nov 2014 (Local Time) from KLUA Reporting Station
Haze Haze  
Wind Chill: 34°   Ceiling: 9000
Heat Index: 34°   Visibility: 4mi
Dew Point: 34°   Wind: 0mph
Humidity: 100%   Direction: NA
Pressure: 29.99"   Gusts: NA
Location:  38.67°N, 78.46°W
Report Text: KLUA 270255Z AUTO 00000KT 4SM BR SCT004 SCT070 OVC090 01/01 A2999 RMK AO2
Loading
Personal Weather Stations






























Interactive Weather Map New forecast layout! Learn more

10-Day Weather Forecast

Advertisements
Track Severe Weather on mobile